Kewadin, MI

12:33 PM EDT on May 25, 2015 (GMT -0400)
Grand Traverse Bay | | Change Station
CLOSE
Current Station
Personal Weather Station
Location: Eastport, MI
Elevation: 622 ft
Nearby Weather Stations

Elev 622 ft 45.11 °N, 85.36 °W | Updated 2 minutes ago

Overcast
Overcast
65.9 °F
Feels Like 65.9 °F
N
1.0
Wind Variable Wind from SSE
Gusts 5.0 mph

Today
High -- | Low -- °F
--% Chance of Precip.
Yesterday
High -- | Low -- °F
Precip. -- in
6:02 AM 9:14 PM
Waxing Crescent, 50% visible
Pressure 29.82 in
Visibility 10.0 miles
Clouds Mostly Cloudy 2300 ft
Overcast 4000 ft
Dew Point 66 °F
Humidity 100%
Rainfall 1.07 in
Snow Depth Not available.
UV 3 out of 12
Pollen 1.00 out of 12
Air Quality Not available.
Flu Activity Sporadic
METAR KACB 251554Z AUTO 18007KT 10SM BKN023 OVC040 22/18 A2982 RMK AO2 T02150177

More Conditions Fewer Conditions

Pressure 29.82 in
Visibility 10.0 miles
Clouds Mostly Cloudy 2300 ft
Overcast 4000 ft
Dew Point 66 °F
Humidity 100%
Rainfall 1.07 in
Snow Depth Not available.
UV 3 out of 12
Pollen 1.00 out of 12
Air Quality Not available.
Flu Activity Sporadic
METAR KACB 251554Z AUTO 18007KT 10SM BKN023 OVC040 22/18 A2982 RMK AO2 T02150177

More Conditions Fewer Conditions

Nowcast | as of 12:00 PM EDT on May 25, 2015

At 1 PM...cloudy. Chance of showers and slight chance of thunderstorms. Temperature 70. South winds 13 mph. At 3 PM...mostly cloudy. Chance of showers and slight chance of thunderstorms. Temperature 73. South winds 15 mph. At 5 PM...mostly cloudy. Chance of showers and slight chance of thunderstorms. Temperature 76. Southwest winds 17 mph. At 7 PM...mostly cloudy. Chance of showers and slight chance of thunderstorms. Temperature 73. Southwest winds 15 mph.

×

10-Day Weather Forecast

Almanac

Astronomy

May. 25, 2015 Rise Set
Actual Time
Civil Twilight
Nautical Twilight
Astronomical Twilight
Moon
Length of Visible Light
Length of Day
Tomorrow will be .
, % of the Moon is Illuminated

Today's Extremes

State Highs State Lows

Community

WunderPhotos

Upload Photos

1,824,048 photos uploaded!

WunderBlogs® & News

Nearby

Air Quality

  Air Quality AQ Index Pollutant
Not available.

Snow Depth

Station Depth Elevation

Earthquake Activity

City Distance Mag. Time & Date
Minimum magnitude displayed is 2.5.

Coastal Water Temperatures

Place Temperature

Stations

Nearby Weather Stations

Station Location Temp. Windchill Dew Point Humidity Wind Precip. Elev Updated Type